sensor_id;sensor_type;location;lat;lon;timestamp;pressure;altitude;pressure_sealevel;temperature;humidity
34983;BME280;21187;50.976;13.720;2023-02-01T00:02:17;98021.91;;;7.16;54.13
34983;BME280;21187;50.976;13.720;2023-02-01T00:07:19;98028.03;;;7.04;54.66
34983;BME280;21187;50.976;13.720;2023-02-01T00:12:21;98024.44;;;7.00;54.53
34983;BME280;21187;50.976;13.720;2023-02-01T00:17:23;98029.16;;;7.03;54.40
34983;BME280;21187;50.976;13.720;2023-02-01T00:22:25;98022.22;;;7.02;54.85
34983;BME280;21187;50.976;13.720;2023-02-01T00:27:27;98035.88;;;6.97;54.83
34983;BME280;21187;50.976;13.720;2023-02-01T00:32:29;98029.63;;;7.05;54.87
34983;BME280;21187;50.976;13.720;2023-02-01T00:37:33;98029.81;;;7.00;54.72
34983;BME280;21187;50.976;13.720;2023-02-01T00:42:35;98026.13;;;6.83;55.01
34983;BME280;21187;50.976;13.720;2023-02-01T00:47:37;98045.25;;;6.91;54.29
34983;BME280;21187;50.976;13.720;2023-02-01T00:52:39;98044.78;;;6.89;54.44
34983;BME280;21187;50.976;13.720;2023-02-01T00:57:41;98038.94;;;6.87;54.32
34983;BME280;21187;50.976;13.720;2023-02-01T01:02:42;98048.59;;;6.88;54.06
34983;BME280;21187;50.976;13.720;2023-02-01T01:07:44;98054.09;;;6.91;54.10
34983;BME280;21187;50.976;13.720;2023-02-01T01:12:46;98054.00;;;6.88;53.85
34983;BME280;21187;50.976;13.720;2023-02-01T01:17:48;98043.66;;;6.90;54.05
34983;BME280;21187;50.976;13.720;2023-02-01T01:22:50;98047.03;;;6.87;53.68
34983;BME280;21187;50.976;13.720;2023-02-01T01:27:52;98037.56;;;6.80;53.94
34983;BME280;21187;50.976;13.720;2023-02-01T01:32:54;98043.41;;;6.82;53.75
34983;BME280;21187;50.976;13.720;2023-02-01T01:37:56;98031.50;;;6.83;53.53
34983;BME280;21187;50.976;13.720;2023-02-01T01:42:58;98036.44;;;6.81;53.49
34983;BME280;21187;50.976;13.720;2023-02-01T01:48:15;98021.41;;;6.80;53.29
34983;BME280;21187;50.976;13.720;2023-02-01T01:53:25;98015.09;;;6.76;52.93
34983;BME280;21187;50.976;13.720;2023-02-01T01:58:32;98018.91;;;6.75;53.17
34983;BME280;21187;50.976;13.720;2023-02-01T02:03:41;98018.78;;;6.72;52.96
34983;BME280;21187;50.976;13.720;2023-02-01T02:08:43;98008.81;;;6.72;52.66
34983;BME280;21187;50.976;13.720;2023-02-01T02:13:52;97998.50;;;6.74;52.20
34983;BME280;21187;50.976;13.720;2023-02-01T02:24:42;98001.19;;;6.74;52.01
34983;BME280;21187;50.976;13.720;2023-02-01T02:41:11;98007.22;;;6.71;51.79
34983;BME280;21187;50.976;13.720;2023-02-01T02:46:39;97993.34;;;6.69;52.13
34983;BME280;21187;50.976;13.720;2023-02-01T02:52:06;97986.38;;;6.68;52.15
34983;BME280;21187;50.976;13.720;2023-02-01T02:57:33;97999.34;;;6.66;52.26
34983;BME280;21187;50.976;13.720;2023-02-01T03:02:55;98002.03;;;6.66;52.04
34983;BME280;21187;50.976;13.720;2023-02-01T03:08:18;98009.19;;;6.62;52.07
34983;BME280;21187;50.976;13.720;2023-02-01T03:13:31;98002.22;;;6.61;52.09
34983;BME280;21187;50.976;13.720;2023-02-01T03:18:48;98003.81;;;6.62;51.58
34983;BME280;21187;50.976;13.720;2023-02-01T03:23:56;98005.41;;;6.63;51.82
34983;BME280;21187;50.976;13.720;2023-02-01T03:29:13;98003.03;;;6.61;51.92
34983;BME280;21187;50.976;13.720;2023-02-01T03:34:17;97996.06;;;6.60;51.68
34983;BME280;21187;50.976;13.720;2023-02-01T03:39:32;97995.41;;;6.63;51.85
34983;BME280;21187;50.976;13.720;2023-02-01T03:44:43;97989.25;;;6.63;51.48
34983;BME280;21187;50.976;13.720;2023-02-01T03:49:55;98004.59;;;6.62;51.39
34983;BME280;21187;50.976;13.720;2023-02-01T03:55:00;97984.53;;;6.60;51.38
34983;BME280;21187;50.976;13.720;2023-02-01T04:00:09;97988.59;;;6.66;51.39
34983;BME280;21187;50.976;13.720;2023-02-01T04:05:18;97986.88;;;6.61;51.30
34983;BME280;21187;50.976;13.720;2023-02-01T04:10:28;97980.06;;;6.64;51.33
34983;BME280;21187;50.976;13.720;2023-02-01T04:15:30;97988.91;;;6.64;51.44
34983;BME280;21187;50.976;13.720;2023-02-01T04:20:32;97998.03;;;6.72;51.08
34983;BME280;21187;50.976;13.720;2023-02-01T04:25:34;97966.19;;;6.74;50.66
34983;BME280;21187;50.976;13.720;2023-02-01T04:30:36;97972.03;;;6.76;50.65
34983;BME280;21187;50.976;13.720;2023-02-01T04:35:38;97953.53;;;6.75;50.74
34983;BME280;21187;50.976;13.720;2023-02-01T04:40:39;97952.88;;;6.78;50.49
34983;BME280;21187;50.976;13.720;2023-02-01T04:45:41;97950.53;;;6.76;50.33
34983;BME280;21187;50.976;13.720;2023-02-01T04:50:48;97947.50;;;6.78;50.56
34983;BME280;21187;50.976;13.720;2023-02-01T04:55:50;97936.59;;;6.74;50.47
34983;BME280;21187;50.976;13.720;2023-02-01T05:00:52;97927.28;;;6.72;50.43
34983;BME280;21187;50.976;13.720;2023-02-01T05:05:54;97911.25;;;6.75;50.33
34983;BME280;21187;50.976;13.720;2023-02-01T05:10:55;97901.28;;;6.76;49.90
34983;BME280;21187;50.976;13.720;2023-02-01T05:15:57;97901.59;;;6.74;49.97
34983;BME280;21187;50.976;13.720;2023-02-01T05:20:59;97879.63;;;6.72;49.66
34983;BME280;21187;50.976;13.720;2023-02-01T05:26:03;97891.97;;;6.73;49.63
34983;BME280;21187;50.976;13.720;2023-02-01T05:31:10;97891.63;;;6.75;49.83
34983;BME280;21187;50.976;13.720;2023-02-01T05:36:12;97882.31;;;6.72;49.73
34983;BME280;21187;50.976;13.720;2023-02-01T05:41:14;97876.13;;;6.72;49.77
34983;BME280;21187;50.976;13.720;2023-02-01T05:46:16;97878.53;;;6.73;49.58
34983;BME280;21187;50.976;13.720;2023-02-01T05:51:17;97896.22;;;6.74;49.83
34983;BME280;21187;50.976;13.720;2023-02-01T05:56:19;97885.47;;;6.74;49.60
34983;BME280;21187;50.976;13.720;2023-02-01T06:01:21;97878.97;;;6.75;49.96
34983;BME280;21187;50.976;13.720;2023-02-01T06:06:23;97878.63;;;6.77;49.74
34983;BME280;21187;50.976;13.720;2023-02-01T06:11:26;97898.28;;;6.77;49.91
34983;BME280;21187;50.976;13.720;2023-02-01T06:16:34;97879.09;;;6.79;49.63
34983;BME280;21187;50.976;13.720;2023-02-01T06:21:36;97880.69;;;6.80;50.02
34983;BME280;21187;50.976;13.720;2023-02-01T06:26:39;97878.56;;;6.86;49.87
34983;BME280;21187;50.976;13.720;2023-02-01T06:31:41;97873.16;;;6.86;49.86
34983;BME280;21187;50.976;13.720;2023-02-01T06:36:44;97871.16;;;6.82;50.31
34983;BME280;21187;50.976;13.720;2023-02-01T06:41:49;97883.94;;;6.86;50.02
34983;BME280;21187;50.976;13.720;2023-02-01T06:46:51;97886.38;;;6.78;50.41
34983;BME280;21187;50.976;13.720;2023-02-01T06:51:53;97870.25;;;6.78;50.78
34983;BME280;21187;50.976;13.720;2023-02-01T06:56:55;97865.97;;;6.77;50.81
34983;BME280;21187;50.976;13.720;2023-02-01T07:01:57;97854.94;;;6.70;51.34
34983;BME280;21187;50.976;13.720;2023-02-01T07:06:59;97861.00;;;6.67;51.28
34983;BME280;21187;50.976;13.720;2023-02-01T07:12:01;97856.28;;;6.64;51.91
34983;BME280;21187;50.976;13.720;2023-02-01T07:17:03;97848.41;;;6.59;52.50
34983;BME280;21187;50.976;13.720;2023-02-01T07:22:04;97846.06;;;6.57;52.79
34983;BME280;21187;50.976;13.720;2023-02-01T07:27:06;97849.50;;;6.45;53.64
34983;BME280;21187;50.976;13.720;2023-02-01T07:32:08;97846.94;;;6.28;54.77
34983;BME280;21187;50.976;13.720;2023-02-01T07:37:10;97844.00;;;6.21;54.75
34983;BME280;21187;50.976;13.720;2023-02-01T07:42:12;97838.22;;;6.10;55.82
34983;BME280;21187;50.976;13.720;2023-02-01T07:47:14;97836.50;;;6.05;56.23
34983;BME280;21187;50.976;13.720;2023-02-01T07:52:16;97831.13;;;6.05;56.28
34983;BME280;21187;50.976;13.720;2023-02-01T07:57:19;97821.03;;;6.02;56.42
34983;BME280;21187;50.976;13.720;2023-02-01T08:02:21;97817.38;;;6.07;56.42
34983;BME280;21187;50.976;13.720;2023-02-01T08:07:23;97817.50;;;6.10;55.78
34983;BME280;21187;50.976;13.720;2023-02-01T08:12:24;97825.09;;;6.08;55.75
34983;BME280;21187;50.976;13.720;2023-02-01T08:17:27;97812.31;;;6.05;56.39
34983;BME280;21187;50.976;13.720;2023-02-01T08:22:33;97800.47;;;6.06;56.32
34983;BME280;21187;50.976;13.720;2023-02-01T08:27:35;97794.28;;;6.06;56.46
34983;BME280;21187;50.976;13.720;2023-02-01T08:32:37;97798.44;;;6.03;56.78
34983;BME280;21187;50.976;13.720;2023-02-01T08:37:39;97788.25;;;6.09;56.59
34983;BME280;21187;50.976;13.720;2023-02-01T08:42:42;97777.88;;;6.20;55.72
34983;BME280;21187;50.976;13.720;2023-02-01T08:47:53;97776.28;;;6.40;55.06
34983;BME280;21187;50.976;13.720;2023-02-01T08:52:55;97772.81;;;6.52;54.53
34983;BME280;21187;50.976;13.720;2023-02-01T08:57:57;97776.88;;;6.58;54.02
34983;BME280;21187;50.976;13.720;2023-02-01T09:02:59;97776.47;;;6.68;53.69
34983;BME280;21187;50.976;13.720;2023-02-01T09:08:00;97787.91;;;6.77;53.75
34983;BME280;21187;50.976;13.720;2023-02-01T09:13:02;97777.16;;;6.77;53.08
34983;BME280;21187;50.976;13.720;2023-02-01T09:18:04;97766.81;;;6.79;53.24
34983;BME280;21187;50.976;13.720;2023-02-01T09:23:06;97777.50;;;6.76;53.47
34983;BME280;21187;50.976;13.720;2023-02-01T09:28:09;97779.59;;;6.70;54.14
34983;BME280;21187;50.976;13.720;2023-02-01T09:33:10;97797.09;;;6.64;54.49
34983;BME280;21187;50.976;13.720;2023-02-01T09:38:12;97791.00;;;6.55;54.81
34983;BME280;21187;50.976;13.720;2023-02-01T09:43:20;97770.34;;;6.46;55.87
34983;BME280;21187;50.976;13.720;2023-02-01T09:48:29;97807.63;;;6.36;56.96
34983;BME280;21187;50.976;13.720;2023-02-01T09:53:37;97794.88;;;6.11;57.01
34983;BME280;21187;50.976;13.720;2023-02-01T09:58:52;97810.25;;;5.81;58.10
34983;BME280;21187;50.976;13.720;2023-02-01T10:04:02;97812.44;;;5.58;58.75
34983;BME280;21187;50.976;13.720;2023-02-01T10:09:35;97815.06;;;5.45;59.49
34983;BME280;21187;50.976;13.720;2023-02-01T10:15:09;97837.66;;;5.36;60.05
34983;BME280;21187;50.976;13.720;2023-02-01T10:25:55;97837.38;;;5.37;60.40
34983;BME280;21187;50.976;13.720;2023-02-01T10:30:58;97842.75;;;5.37;60.29
34983;BME280;21187;50.976;13.720;2023-02-01T10:36:14;97828.66;;;5.40;60.78
34983;BME280;21187;50.976;13.720;2023-02-01T10:41:21;97856.81;;;5.34;60.93
34983;BME280;21187;50.976;13.720;2023-02-01T10:46:23;97824.56;;;5.34;61.22
34983;BME280;21187;50.976;13.720;2023-02-01T10:51:30;97842.00;;;5.58;61.14
34983;BME280;21187;50.976;13.720;2023-02-01T10:56:37;97843.28;;;5.81;60.33
34983;BME280;21187;50.976;13.720;2023-02-01T11:01:41;97836.50;;;6.05;60.04
34983;BME280;21187;50.976;13.720;2023-02-01T11:06:44;97834.72;;;6.30;59.61
34983;BME280;21187;50.976;13.720;2023-02-01T11:16:58;97856.03;;;6.57;58.91
34983;BME280;21187;50.976;13.720;2023-02-01T11:22:03;97852.47;;;6.65;58.41
34983;BME280;21187;50.976;13.720;2023-02-01T11:27:13;97836.72;;;6.76;58.05
34983;BME280;21187;50.976;13.720;2023-02-01T11:38:12;97853.44;;;6.94;57.74
34983;BME280;21187;50.976;13.720;2023-02-01T11:43:28;97825.31;;;7.04;57.55
34983;BME280;21187;50.976;13.720;2023-02-01T11:48:32;97824.63;;;7.07;56.74
34983;BME280;21187;50.976;13.720;2023-02-01T12:09:32;97806.94;;;7.30;56.12
34983;BME280;21187;50.976;13.720;2023-02-01T12:20:07;97803.47;;;7.30;55.68
34983;BME280;21187;50.976;13.720;2023-02-01T12:25:34;97796.72;;;7.24;55.24
34983;BME280;21187;50.976;13.720;2023-02-01T12:42:00;97787.63;;;7.28;54.82
34983;BME280;21187;50.976;13.720;2023-02-01T12:57:40;97791.34;;;7.48;54.03
34983;BME280;21187;50.976;13.720;2023-02-01T13:02:51;97793.22;;;7.60;53.90
34983;BME280;21187;50.976;13.720;2023-02-01T13:08:12;97787.69;;;7.69;53.62
34983;BME280;21187;50.976;13.720;2023-02-01T13:13:44;97793.53;;;7.71;52.99
34983;BME280;21187;50.976;13.720;2023-02-01T13:18:50;97788.25;;;7.75;53.11
34983;BME280;21187;50.976;13.720;2023-02-01T13:23:54;97790.38;;;7.81;52.74
34983;BME280;21187;50.976;13.720;2023-02-01T13:29:14;97785.19;;;7.89;53.05
34983;BME280;21187;50.976;13.720;2023-02-01T13:45:23;97753.38;;;7.94;51.04
34983;BME280;21187;50.976;13.720;2023-02-01T13:55:34;97735.06;;;8.00;51.21
34983;BME280;21187;50.976;13.720;2023-02-01T14:00:39;97750.44;;;7.99;50.35
34983;BME280;21187;50.976;13.720;2023-02-01T14:16:16;97729.41;;;8.05;49.40
34983;BME280;21187;50.976;13.720;2023-02-01T14:21:32;97747.06;;;8.03;49.38
34983;BME280;21187;50.976;13.720;2023-02-01T14:26:44;97752.25;;;7.95;48.82
34983;BME280;21187;50.976;13.720;2023-02-01T14:32:00;97732.50;;;7.91;49.26
34983;BME280;21187;50.976;13.720;2023-02-01T14:37:07;97726.41;;;7.94;49.12
34983;BME280;21187;50.976;13.720;2023-02-01T14:57:48;97725.22;;;7.79;49.02
34983;BME280;21187;50.976;13.720;2023-02-01T15:02:53;97731.06;;;7.81;48.63
34983;BME280;21187;50.976;13.720;2023-02-01T15:07:58;97724.53;;;7.82;48.90
34983;BME280;21187;50.976;13.720;2023-02-01T15:13:01;97731.50;;;7.83;49.19
34983;BME280;21187;50.976;13.720;2023-02-01T15:18:03;97711.31;;;7.77;48.85
34983;BME280;21187;50.976;13.720;2023-02-01T15:23:16;97702.47;;;7.64;49.48
34983;BME280;21187;50.976;13.720;2023-02-01T15:28:18;97694.75;;;7.50;50.64
34983;BME280;21187;50.976;13.720;2023-02-01T15:33:21;97683.34;;;7.41;51.07
34983;BME280;21187;50.976;13.720;2023-02-01T15:43:26;97650.00;;;7.33;51.12
34983;BME280;21187;50.976;13.720;2023-02-01T15:48:38;97649.94;;;7.30;51.22
34983;BME280;21187;50.976;13.720;2023-02-01T15:53:45;97643.53;;;7.22;51.49
34983;BME280;21187;50.976;13.720;2023-02-01T15:58:52;97645.94;;;7.11;51.92
34983;BME280;21187;50.976;13.720;2023-02-01T16:09:19;97671.31;;;6.73;53.95
34983;BME280;21187;50.976;13.720;2023-02-01T16:14:22;97637.09;;;6.37;55.58
34983;BME280;21187;50.976;13.720;2023-02-01T16:19:24;97630.22;;;6.14;56.19
34983;BME280;21187;50.976;13.720;2023-02-01T16:24:29;97610.13;;;5.99;56.93
34983;BME280;21187;50.976;13.720;2023-02-01T16:29:33;97591.03;;;5.92;57.52
34983;BME280;21187;50.976;13.720;2023-02-01T16:34:35;97585.34;;;5.94;57.90
34983;BME280;21187;50.976;13.720;2023-02-01T16:39:38;97579.19;;;5.93;57.88
34983;BME280;21187;50.976;13.720;2023-02-01T16:44:40;97583.59;;;5.98;58.08
34983;BME280;21187;50.976;13.720;2023-02-01T16:49:43;97599.19;;;6.05;57.83
34983;BME280;21187;50.976;13.720;2023-02-01T16:54:45;97594.44;;;6.02;58.08
34983;BME280;21187;50.976;13.720;2023-02-01T16:59:47;97598.38;;;6.04;58.13
34983;BME280;21187;50.976;13.720;2023-02-01T17:04:49;97634.03;;;5.92;58.11
34983;BME280;21187;50.976;13.720;2023-02-01T17:09:52;97710.84;;;5.81;58.32
34983;BME280;21187;50.976;13.720;2023-02-01T17:14:53;97750.47;;;5.63;58.15
34983;BME280;21187;50.976;13.720;2023-02-01T17:19:55;97691.66;;;5.28;58.02
34983;BME280;21187;50.976;13.720;2023-02-01T17:24:57;97686.97;;;4.86;58.68
34983;BME280;21187;50.976;13.720;2023-02-01T17:29:59;97703.75;;;4.74;58.49
34983;BME280;21187;50.976;13.720;2023-02-01T17:35:08;97683.63;;;4.59;59.02
34983;BME280;21187;50.976;13.720;2023-02-01T17:40:15;97682.09;;;4.49;59.57
34983;BME280;21187;50.976;13.720;2023-02-01T17:45:35;97703.38;;;4.55;60.04
34983;BME280;21187;50.976;13.720;2023-02-01T17:50:38;97710.22;;;4.73;59.55
34983;BME280;21187;50.976;13.720;2023-02-01T17:55:43;97717.75;;;4.89;59.02
34983;BME280;21187;50.976;13.720;2023-02-01T18:00:47;97736.97;;;4.91;59.26
34983;BME280;21187;50.976;13.720;2023-02-01T18:05:51;97757.66;;;4.90;59.78
34983;BME280;21187;50.976;13.720;2023-02-01T18:10:58;97766.47;;;4.99;59.16
34983;BME280;21187;50.976;13.720;2023-02-01T18:16:01;97744.22;;;4.99;59.37
34983;BME280;21187;50.976;13.720;2023-02-01T18:21:05;97753.56;;;4.93;59.37
34983;BME280;21187;50.976;13.720;2023-02-01T18:26:10;97748.47;;;5.00;59.50
34983;BME280;21187;50.976;13.720;2023-02-01T18:31:23;97749.84;;;5.06;59.13
34983;BME280;21187;50.976;13.720;2023-02-01T18:36:27;97764.38;;;5.05;59.06
34983;BME280;21187;50.976;13.720;2023-02-01T18:41:32;97761.25;;;5.03;58.95
34983;BME280;21187;50.976;13.720;2023-02-01T18:46:34;97768.38;;;4.99;58.84
34983;BME280;21187;50.976;13.720;2023-02-01T18:51:36;97763.00;;;4.99;59.05
34983;BME280;21187;50.976;13.720;2023-02-01T18:56:39;97772.00;;;5.03;59.20
34983;BME280;21187;50.976;13.720;2023-02-01T19:01:41;97776.69;;;5.06;59.06
34983;BME280;21187;50.976;13.720;2023-02-01T19:06:45;97768.81;;;5.01;59.17
34983;BME280;21187;50.976;13.720;2023-02-01T19:11:47;97762.53;;;4.97;59.29
34983;BME280;21187;50.976;13.720;2023-02-01T19:16:49;97764.13;;;4.98;59.12
34983;BME280;21187;50.976;13.720;2023-02-01T19:21:51;97760.94;;;4.96;58.69
34983;BME280;21187;50.976;13.720;2023-02-01T19:26:53;97768.88;;;4.92;58.89
34983;BME280;21187;50.976;13.720;2023-02-01T19:31:55;97762.25;;;4.90;58.92
34983;BME280;21187;50.976;13.720;2023-02-01T19:36:59;97772.59;;;5.00;58.65
34983;BME280;21187;50.976;13.720;2023-02-01T19:42:01;97767.53;;;5.07;59.14
34983;BME280;21187;50.976;13.720;2023-02-01T19:47:04;97773.19;;;5.14;58.96
34983;BME280;21187;50.976;13.720;2023-02-01T19:52:06;97784.66;;;5.24;58.44
34983;BME280;21187;50.976;13.720;2023-02-01T19:57:08;97775.31;;;5.30;58.69
34983;BME280;21187;50.976;13.720;2023-02-01T20:02:14;97781.63;;;5.34;58.55
34983;BME280;21187;50.976;13.720;2023-02-01T20:07:16;97785.69;;;5.40;58.42
34983;BME280;21187;50.976;13.720;2023-02-01T20:12:18;97783.34;;;5.39;58.67
34983;BME280;21187;50.976;13.720;2023-02-01T20:17:20;97790.41;;;5.43;58.11
34983;BME280;21187;50.976;13.720;2023-02-01T20:22:22;97785.31;;;5.50;58.05
34983;BME280;21187;50.976;13.720;2023-02-01T20:27:24;97788.00;;;5.50;57.75
34983;BME280;21187;50.976;13.720;2023-02-01T20:32:26;97804.13;;;5.50;57.59
34983;BME280;21187;50.976;13.720;2023-02-01T20:37:28;97814.34;;;5.57;57.90
34983;BME280;21187;50.976;13.720;2023-02-01T20:42:30;97822.28;;;5.54;57.81
34983;BME280;21187;50.976;13.720;2023-02-01T20:47:32;97824.38;;;5.48;58.05
34983;BME280;21187;50.976;13.720;2023-02-01T20:52:34;97839.56;;;5.44;58.53
34983;BME280;21187;50.976;13.720;2023-02-01T20:57:36;97824.69;;;5.46;58.24
34983;BME280;21187;50.976;13.720;2023-02-01T21:02:38;97828.94;;;5.47;58.17
34983;BME280;21187;50.976;13.720;2023-02-01T21:07:40;97816.75;;;5.50;58.18
34983;BME280;21187;50.976;13.720;2023-02-01T21:12:42;97835.03;;;5.57;58.03
34983;BME280;21187;50.976;13.720;2023-02-01T21:17:44;97832.34;;;5.57;58.01
34983;BME280;21187;50.976;13.720;2023-02-01T21:22:46;97832.34;;;5.57;57.96
34983;BME280;21187;50.976;13.720;2023-02-01T21:27:48;97831.72;;;5.60;58.19
34983;BME280;21187;50.976;13.720;2023-02-01T21:32:50;97831.59;;;5.56;57.94
34983;BME280;21187;50.976;13.720;2023-02-01T21:37:52;97846.91;;;5.56;58.05
34983;BME280;21187;50.976;13.720;2023-02-01T21:42:54;97843.50;;;5.46;58.54
34983;BME280;21187;50.976;13.720;2023-02-01T21:47:56;97847.91;;;5.42;58.76
34983;BME280;21187;50.976;13.720;2023-02-01T21:52:57;97845.69;;;5.44;58.89
34983;BME280;21187;50.976;13.720;2023-02-01T21:57:59;97850.56;;;5.51;58.07
34983;BME280;21187;50.976;13.720;2023-02-01T22:03:01;97843.50;;;5.46;58.74
34983;BME280;21187;50.976;13.720;2023-02-01T22:08:03;97842.25;;;5.44;58.72
34983;BME280;21187;50.976;13.720;2023-02-01T22:13:05;97855.84;;;5.39;59.08
34983;BME280;21187;50.976;13.720;2023-02-01T22:18:08;97846.25;;;5.29;59.51
34983;BME280;21187;50.976;13.720;2023-02-01T22:23:10;97859.81;;;5.32;59.47
34983;BME280;21187;50.976;13.720;2023-02-01T22:28:12;97851.94;;;5.27;59.54
34983;BME280;21187;50.976;13.720;2023-02-01T22:33:34;97850.66;;;5.33;59.88
34983;BME280;21187;50.976;13.720;2023-02-01T22:38:36;97841.91;;;5.45;59.31
34983;BME280;21187;50.976;13.720;2023-02-01T22:43:38;97858.94;;;5.49;59.39
34983;BME280;21187;50.976;13.720;2023-02-01T22:48:41;97852.75;;;5.58;59.22
34983;BME280;21187;50.976;13.720;2023-02-01T22:53:43;97864.75;;;5.60;59.11
34983;BME280;21187;50.976;13.720;2023-02-01T22:58:46;97845.97;;;5.52;59.38
34983;BME280;21187;50.976;13.720;2023-02-01T23:03:47;97853.34;;;5.63;58.83
34983;BME280;21187;50.976;13.720;2023-02-01T23:08:56;97841.81;;;5.63;58.77
34983;BME280;21187;50.976;13.720;2023-02-01T23:13:58;97849.69;;;5.68;58.54
34983;BME280;21187;50.976;13.720;2023-02-01T23:19:00;97847.84;;;5.60;58.10
34983;BME280;21187;50.976;13.720;2023-02-01T23:24:03;97850.72;;;5.55;58.15
34983;BME280;21187;50.976;13.720;2023-02-01T23:29:09;97845.03;;;5.47;57.90
34983;BME280;21187;50.976;13.720;2023-02-01T23:34:16;97866.91;;;5.37;58.38
34983;BME280;21187;50.976;13.720;2023-02-01T23:39:18;97851.44;;;5.34;58.80
34983;BME280;21187;50.976;13.720;2023-02-01T23:44:20;97862.81;;;5.31;58.81
34983;BME280;21187;50.976;13.720;2023-02-01T23:49:21;97863.47;;;5.28;58.95
34983;BME280;21187;50.976;13.720;2023-02-01T23:54:23;97870.69;;;5.36;58.62
34983;BME280;21187;50.976;13.720;2023-02-01T23:59:25;97882.69;;;5.39;58.53
